createdAt,value
2023-02-15T00:21:38.292Z,31.5
2023-02-15T00:51:41.586Z,29.5
2023-02-15T01:21:36.457Z,31.9
2023-02-15T01:51:37.941Z,29.5
2023-02-15T02:21:54.461Z,27.7
2023-02-15T02:51:34.211Z,25.9
2023-02-15T03:21:36.749Z,24.1
2023-02-15T03:51:39.973Z,23.8
2023-02-15T04:21:46.670Z,24.6
2023-02-15T04:51:40.512Z,29
2023-02-15T05:21:30.598Z,23.2
2023-02-15T05:51:30.010Z,26.2
2023-02-15T06:21:29.203Z,25.2
2023-02-15T06:51:38.084Z,29.4
2023-02-15T07:21:29.196Z,25.1
2023-02-15T07:51:30.601Z,31.2
2023-02-15T08:21:30.303Z,29.3
2023-02-15T08:51:30.500Z,30.1
2023-02-15T09:21:27.667Z,32.3
2023-02-15T09:51:52.969Z,34.3
2023-02-15T10:21:36.065Z,42.7
2023-02-15T10:51:37.721Z,45.2
2023-02-15T11:21:33.404Z,53
2023-02-15T11:51:33.107Z,50.7
2023-02-15T12:21:41.874Z,51.7
2023-02-15T12:51:33.157Z,46.2
2023-02-15T13:21:36.369Z,49.5
2023-02-15T13:51:39.637Z,55.1
2023-02-15T14:21:37.675Z,54.7
2023-02-15T14:51:49.526Z,53.5
2023-02-15T15:21:49.305Z,55.2
2023-02-15T15:51:47.371Z,54.3
2023-02-15T16:21:45.705Z,48.4
2023-02-15T16:51:41.960Z,51.2
2023-02-15T17:21:46.156Z,51.7
2023-02-15T17:51:47.336Z,48.7
2023-02-15T18:21:45.322Z,51.5
2023-02-15T18:51:54.661Z,51.8
2023-02-15T19:21:46.924Z,52.5
2023-02-15T19:51:47.789Z,47.6
2023-02-15T20:21:54.777Z,45.1
2023-02-15T20:51:49.135Z,48.8
2023-02-15T21:21:50.406Z,44.8
2023-02-15T21:52:01.341Z,40.5
2023-02-15T22:21:51.950Z,46
2023-02-15T22:51:52.511Z,40.3
2023-02-15T23:21:51.893Z,38.5
2023-02-15T23:51:52.974Z,43.3
